createdAt,value
2023-03-26T00:01:13.749Z,8.98
2023-03-26T00:03:41.975Z,10.20
2023-03-26T00:06:12.618Z,9.52
2023-03-26T00:08:40.978Z,12.23
2023-03-26T00:11:10.394Z,15.18
2023-03-26T00:13:37.160Z,12.00
2023-03-26T00:16:04.196Z,13.33
2023-03-26T00:18:31.662Z,18.30
2023-03-26T00:20:59.509Z,12.73
2023-03-26T00:23:28.201Z,7.97
2023-03-26T00:25:56.159Z,8.63
2023-03-26T00:28:23.950Z,11.77
2023-03-26T00:30:58.155Z,8.10
2023-03-26T00:33:24.598Z,17.10
2023-03-26T00:35:56.728Z,9.70
2023-03-26T00:38:23.971Z,8.48
2023-03-26T00:40:52.143Z,10.07
2023-03-26T00:43:19.875Z,7.55
2023-03-26T00:45:50.942Z,8.50
2023-03-26T00:48:18.429Z,14.07
2023-03-26T00:50:46.830Z,10.88
2023-03-26T00:53:14.856Z,17.93
2023-03-26T00:55:42.960Z,6.90
2023-03-26T00:58:12.147Z,13.43
2023-03-26T01:00:57.168Z,8.52
2023-03-26T01:03:28.182Z,13.57
2023-03-26T01:06:04.802Z,20.50
2023-03-26T01:08:32.938Z,10.18
2023-03-26T01:11:13.985Z,6.45
2023-03-26T01:13:47.501Z,9.85
2023-03-26T01:16:21.271Z,8.43
2023-03-26T01:18:48.627Z,10.73
2023-03-26T01:21:22.510Z,20.02
2023-03-26T01:23:57.204Z,10.25
2023-03-26T01:26:45.693Z,10.40
2023-03-26T01:29:20.719Z,9.52
2023-03-26T01:32:28.534Z,8.57
2023-03-26T01:35:42.655Z,14.68
2023-03-26T01:38:23.124Z,6.60
2023-03-26T01:40:59.069Z,9.75
2023-03-26T01:43:51.943Z,13.18
2023-03-26T01:46:19.296Z,9.73
2023-03-26T01:48:47.028Z,12.02
2023-03-26T01:51:25.117Z,4.60
2023-03-26T01:53:53.283Z,14.90
2023-03-26T01:56:36.039Z,15.45
2023-03-26T01:59:11.293Z,15.97
2023-03-26T02:01:45.980Z,15.18
2023-03-26T02:04:22.597Z,10.70
2023-03-26T02:06:58.526Z,12.75
2023-03-26T02:09:30.697Z,6.13
2023-03-26T02:11:57.469Z,12.37
2023-03-26T02:14:25.276Z,10.98
2023-03-26T02:16:51.667Z,8.15
2023-03-26T02:19:21.525Z,7.60
2023-03-26T02:21:51.648Z,14.57
2023-03-26T02:24:21.142Z,8.63
2023-03-26T02:26:47.603Z,8.07
2023-03-26T02:29:14.758Z,6.82
2023-03-26T02:31:41.160Z,27.67
2023-03-26T02:34:07.589Z,14.68
2023-03-26T02:36:35.917Z,10.27
2023-03-26T02:39:03.509Z,8.70
2023-03-26T02:41:30.003Z,14.32
2023-03-26T02:43:56.431Z,15.75
2023-03-26T02:46:22.825Z,10.60
2023-03-26T02:48:49.803Z,9.83
2023-03-26T02:51:18.202Z,10.13
2023-03-26T02:53:44.709Z,16.90
2023-03-26T02:56:12.500Z,13.98
2023-03-26T02:58:38.896Z,6.25
2023-03-26T03:01:05.320Z,9.40
2023-03-26T03:03:31.814Z,14.40
2023-03-26T03:05:58.283Z,15.52
2023-03-26T03:08:27.989Z,12.40
2023-03-26T03:11:00.178Z,27.77
2023-03-26T03:13:27.152Z,22.90
2023-03-26T03:15:54.789Z,29.42
2023-03-26T03:18:21.882Z,26.42
2023-03-26T03:20:48.438Z,24.55
2023-03-26T03:23:14.774Z,16.80
2023-03-26T03:25:41.211Z,36.63
2023-03-26T03:28:08.446Z,21.70
2023-03-26T03:30:35.669Z,39.25
2023-03-26T03:33:03.049Z,31.30
2023-03-26T03:35:30.297Z,28.05
2023-03-26T03:37:58.112Z,36.37
2023-03-26T03:40:24.547Z,31.13
2023-03-26T03:42:51.490Z,32.00
2023-03-26T03:45:18.370Z,32.85
2023-03-26T03:47:44.834Z,35.22
2023-03-26T03:50:11.789Z,30.23
2023-03-26T03:52:38.291Z,30.83
2023-03-26T03:55:05.088Z,32.65
2023-03-26T03:57:33.451Z,31.13
2023-03-26T04:00:00.161Z,43.65
2023-03-26T04:02:30.271Z,44.93
2023-03-26T04:05:00.471Z,41.13
2023-03-26T04:07:30.590Z,31.30
2023-03-26T04:09:57.264Z,34.25
2023-03-26T04:12:23.633Z,36.13
2023-03-26T04:14:50.177Z,29.73
2023-03-26T04:17:16.704Z,37.72
2023-03-26T04:19:44.082Z,39.75
2023-03-26T04:22:11.897Z,28.75
2023-03-26T04:24:40.141Z,30.60
2023-03-26T04:27:10.475Z,42.83
2023-03-26T04:29:42.964Z,39.47
2023-03-26T04:32:21.735Z,40.30
2023-03-26T04:34:48.188Z,24.73
2023-03-26T04:37:26.546Z,39.03
2023-03-26T04:39:54.304Z,27.47
2023-03-26T04:42:21.126Z,32.88
2023-03-26T04:44:50.783Z,39.22
2023-03-26T04:47:20.220Z,25.02
2023-03-26T04:49:47.499Z,40.38
2023-03-26T04:52:15.285Z,24.93
2023-03-26T04:54:44.376Z,29.13
2023-03-26T04:57:32.650Z,35.70
2023-03-26T04:59:59.011Z,34.65
2023-03-26T05:02:26.153Z,33.45
2023-03-26T05:04:52.564Z,39.13
2023-03-26T05:07:22.399Z,40.33
2023-03-26T05:09:48.747Z,28.05
2023-03-26T05:12:16.349Z,21.88
2023-03-26T05:14:42.686Z,36.65
2023-03-26T05:17:14.934Z,31.03
2023-03-26T05:19:41.748Z,26.83
2023-03-26T05:22:08.100Z,37.55
2023-03-26T05:24:34.477Z,39.17
2023-03-26T05:27:01.217Z,24.40
2023-03-26T05:29:27.816Z,26.00
2023-03-26T05:31:54.179Z,29.20
2023-03-26T05:34:24.045Z,28.25
2023-03-26T05:36:50.574Z,32.90
2023-03-26T05:39:17.077Z,24.95
2023-03-26T05:41:44.012Z,33.07
2023-03-26T05:44:10.686Z,29.63
2023-03-26T05:46:37.162Z,35.65
2023-03-26T05:49:03.578Z,28.42
2023-03-26T05:51:29.962Z,33.33
2023-03-26T05:53:56.330Z,32.77
2023-03-26T05:56:22.758Z,26.85
2023-03-26T05:58:50.909Z,28.50
2023-03-26T06:01:19.558Z,23.13
2023-03-26T06:03:46.902Z,26.83
2023-03-26T06:06:16.232Z,32.27
2023-03-26T06:08:43.761Z,33.42
2023-03-26T06:11:12.470Z,22.38
2023-03-26T06:13:39.852Z,22.13
2023-03-26T06:16:06.796Z,30.30
2023-03-26T06:18:33.305Z,29.37
2023-03-26T06:20:59.934Z,26.63
2023-03-26T06:23:26.390Z,31.00
2023-03-26T06:25:52.796Z,34.78
2023-03-26T06:28:19.212Z,24.33
2023-03-26T06:30:45.852Z,33.33
2023-03-26T06:33:12.210Z,46.33
2023-03-26T06:35:38.628Z,42.35
2023-03-26T06:38:05.249Z,36.50
2023-03-26T06:40:33.112Z,45.92
2023-03-26T06:43:07.834Z,23.70
2023-03-26T06:45:37.269Z,39.75
2023-03-26T06:48:04.377Z,28.63
2023-03-26T06:50:32.247Z,36.33
2023-03-26T06:52:58.647Z,42.75
2023-03-26T06:55:25.397Z,32.47
2023-03-26T06:57:53.654Z,24.05
2023-03-26T07:00:21.316Z,33.65
2023-03-26T07:02:47.785Z,25.45
2023-03-26T07:05:15.494Z,27.58
2023-03-26T07:07:46.339Z,25.60
2023-03-26T07:10:14.764Z,28.55
2023-03-26T07:12:42.361Z,25.55
2023-03-26T07:15:10.138Z,26.70
2023-03-26T07:17:36.798Z,32.70
2023-03-26T07:20:04.767Z,26.43
2023-03-26T07:22:31.510Z,27.17
2023-03-26T07:24:58.394Z,38.70
2023-03-26T07:27:37.687Z,36.22
2023-03-26T07:30:51.751Z,30.90
2023-03-26T07:33:37.578Z,26.00
2023-03-26T07:36:29.485Z,40.30
2023-03-26T07:39:00.113Z,28.02
2023-03-26T07:41:49.652Z,28.52
2023-03-26T07:44:27.637Z,29.00
2023-03-26T07:46:54.582Z,21.37
2023-03-26T07:49:21.511Z,28.02
2023-03-26T07:51:48.929Z,36.50
2023-03-26T07:54:15.744Z,27.73
2023-03-26T07:57:28.423Z,33.55
2023-03-26T08:00:22.041Z,26.70
2023-03-26T08:03:01.268Z,22.48
2023-03-26T08:05:35.349Z,36.08
2023-03-26T08:08:38.566Z,24.27
2023-03-26T08:11:30.161Z,37.92
2023-03-26T08:14:10.185Z,25.07
2023-03-26T08:16:45.937Z,32.70
2023-03-26T08:19:25.295Z,28.42
2023-03-26T08:21:55.513Z,35.58
2023-03-26T08:24:26.822Z,37.03
2023-03-26T08:27:02.533Z,30.43
2023-03-26T08:30:01.550Z,25.05
2023-03-26T08:32:28.845Z,40.67
2023-03-26T08:34:57.364Z,26.40
2023-03-26T08:37:23.678Z,24.83
2023-03-26T08:39:50.758Z,24.37
2023-03-26T08:42:20.680Z,25.15
2023-03-26T08:44:56.155Z,25.70
2023-03-26T08:47:56.974Z,22.70
2023-03-26T08:50:41.788Z,33.97
2023-03-26T08:53:14.110Z,21.17
2023-03-26T08:55:44.497Z,30.38
2023-03-26T08:58:46.011Z,28.73
2023-03-26T09:01:27.741Z,17.60
2023-03-26T09:04:40.256Z,25.10
2023-03-26T09:07:34.632Z,20.17
2023-03-26T09:10:28.476Z,18.83
2023-03-26T09:13:20.964Z,18.23
2023-03-26T09:16:27.261Z,22.00
2023-03-26T09:19:25.649Z,9.68
2023-03-26T09:21:51.980Z,16.70
2023-03-26T09:24:43.603Z,10.77
2023-03-26T09:27:34.752Z,21.40
2023-03-26T09:30:30.214Z,16.45
2023-03-26T09:33:15.601Z,30.95
2023-03-26T09:35:52.236Z,10.03
2023-03-26T09:38:37.144Z,3.80
2023-03-26T09:41:18.348Z,4.18
2023-03-26T09:44:11.081Z,10.35
2023-03-26T09:46:56.571Z,3.65
2023-03-26T09:49:25.655Z,5.30
2023-03-26T09:52:16.254Z,19.85
2023-03-26T09:55:05.234Z,22.67
2023-03-26T09:57:59.732Z,15.85
2023-03-26T10:01:00.690Z,13.30
2023-03-26T10:03:47.816Z,7.63
2023-03-26T10:06:35.487Z,9.43
2023-03-26T10:09:24.832Z,16.52
2023-03-26T10:12:18.836Z,6.93
2023-03-26T10:15:16.721Z,11.93
2023-03-26T10:17:56.826Z,11.53
2023-03-26T10:20:44.078Z,7.68
2023-03-26T10:23:32.683Z,11.77
2023-03-26T10:26:15.009Z,8.55
2023-03-26T10:28:44.096Z,6.85
2023-03-26T10:31:36.603Z,13.47
2023-03-26T10:34:28.708Z,4.50
2023-03-26T10:37:22.006Z,2.90
2023-03-26T10:40:25.545Z,6.13
2023-03-26T10:42:54.721Z,4.72
2023-03-26T10:45:44.110Z,6.03
2023-03-26T10:48:31.990Z,8.38
2023-03-26T10:51:17.073Z,6.15
2023-03-26T10:53:49.448Z,5.78
2023-03-26T10:56:27.453Z,5.60
2023-03-26T10:58:56.751Z,3.00
2023-03-26T11:01:50.519Z,8.75
2023-03-26T11:05:06.706Z,10.98
2023-03-26T11:07:44.078Z,15.43
2023-03-26T11:10:40.007Z,5.38
2023-03-26T11:13:20.141Z,12.00
2023-03-26T11:15:58.969Z,5.20
2023-03-26T11:18:35.239Z,12.18
2023-03-26T11:21:43.191Z,7.18
2023-03-26T11:24:36.486Z,6.03
2023-03-26T11:27:19.953Z,11.33
2023-03-26T11:30:26.704Z,3.30
2023-03-26T11:32:57.377Z,14.63
2023-03-26T11:35:41.689Z,3.88
2023-03-26T11:38:23.543Z,7.10
2023-03-26T11:40:54.295Z,5.70
2023-03-26T11:43:29.960Z,2.65
2023-03-26T11:45:56.539Z,11.80
2023-03-26T11:48:32.049Z,16.63
2023-03-26T11:51:07.380Z,3.58
2023-03-26T11:53:39.674Z,8.60
2023-03-26T11:56:17.122Z,19.13
2023-03-26T11:58:51.974Z,18.00
2023-03-26T12:01:50.428Z,7.93
2023-03-26T12:04:40.661Z,6.40
2023-03-26T12:07:17.490Z,15.47
2023-03-26T12:09:54.034Z,12.55
2023-03-26T12:12:21.991Z,10.82
2023-03-26T12:14:48.462Z,7.38
2023-03-26T12:17:30.977Z,7.43
2023-03-26T12:19:58.889Z,14.03
2023-03-26T12:22:40.247Z,10.05
2023-03-26T12:25:21.939Z,17.55
2023-03-26T12:27:49.519Z,11.40
2023-03-26T12:30:51.719Z,11.52
2023-03-26T12:34:03.215Z,4.03
2023-03-26T12:36:33.175Z,2.22
2023-03-26T12:39:17.065Z,9.52
2023-03-26T12:44:42.500Z,5.72
2023-03-26T12:44:58.968Z,10.68
2023-03-26T12:47:59.129Z,7.33
2023-03-26T12:50:16.933Z,9.15
2023-03-26T12:52:49.282Z,11.48
2023-03-26T12:55:39.275Z,5.28
2023-03-26T12:58:14.006Z,7.82
2023-03-26T13:01:06.379Z,8.77
2023-03-26T13:04:13.935Z,3.58
2023-03-26T13:07:00.411Z,0.73
2023-03-26T13:09:58.988Z,5.93
2023-03-26T13:13:01.311Z,7.47
2023-03-26T13:15:35.525Z,17.97
2023-03-26T13:18:08.303Z,7.80
2023-03-26T13:20:49.364Z,7.72
2023-03-26T13:23:29.480Z,6.68
2023-03-26T13:26:11.175Z,9.63
2023-03-26T13:29:12.213Z,8.43
2023-03-26T13:32:07.235Z,2.35
2023-03-26T13:34:59.875Z,5.88
2023-03-26T13:37:33.728Z,7.20
2023-03-26T13:40:14.994Z,7.78
2023-03-26T13:42:59.638Z,11.10
2023-03-26T13:45:51.243Z,5.30
2023-03-26T13:48:25.985Z,1.10
2023-03-26T13:51:16.623Z,5.45
2023-03-26T13:53:58.850Z,5.63
2023-03-26T13:56:33.429Z,4.17
2023-03-26T13:59:05.635Z,3.92
2023-03-26T14:01:41.000Z,6.30
2023-03-26T14:04:21.415Z,5.47
2023-03-26T14:07:02.665Z,3.42
2023-03-26T14:09:54.426Z,6.73
2023-03-26T14:12:37.010Z,2.97
2023-03-26T14:15:16.306Z,2.97
2023-03-26T14:17:56.236Z,7.63
2023-03-26T14:20:22.824Z,7.82
2023-03-26T14:23:10.664Z,2.27
2023-03-26T14:25:58.896Z,2.78
2023-03-26T14:28:28.358Z,1.35
2023-03-26T14:31:10.182Z,5.47
2023-03-26T14:34:07.504Z,1.45
2023-03-26T14:36:59.100Z,0.77
2023-03-26T14:39:38.490Z,3.72
2023-03-26T14:42:18.748Z,1.67
2023-03-26T14:45:20.371Z,6.35
2023-03-26T14:48:25.839Z,1.67
2023-03-26T14:51:21.360Z,2.10
2023-03-26T14:53:56.618Z,1.95
2023-03-26T14:56:38.204Z,3.92
2023-03-26T14:59:07.610Z,5.93
2023-03-26T15:01:52.292Z,1.70
2023-03-26T15:04:54.160Z,2.13
2023-03-26T15:07:36.867Z,4.10
2023-03-26T15:10:40.892Z,5.97
2023-03-26T15:13:26.182Z,1.67
2023-03-26T15:16:28.978Z,8.88
2023-03-26T15:19:07.544Z,1.70
2023-03-26T15:22:04.276Z,2.38
2023-03-26T15:24:56.910Z,4.03
2023-03-26T15:27:57.374Z,2.55
2023-03-26T15:30:52.474Z,2.15
2023-03-26T15:33:49.853Z,2.87
2023-03-26T15:36:46.860Z,2.38
2023-03-26T15:39:59.111Z,5.93
2023-03-26T15:42:48.485Z,4.18
2023-03-26T15:45:45.854Z,2.33
2023-03-26T15:48:12.479Z,6.90
2023-03-26T15:50:57.765Z,1.92
2023-03-26T15:53:48.874Z,1.63
2023-03-26T15:56:25.490Z,1.38
2023-03-26T15:59:11.955Z,13.23
2023-03-26T16:01:47.379Z,2.10
2023-03-26T16:04:35.135Z,2.53
2023-03-26T16:07:28.880Z,5.03
2023-03-26T16:10:16.060Z,0.93
2023-03-26T16:12:54.136Z,4.50
2023-03-26T16:15:33.166Z,1.30
2023-03-26T16:18:12.244Z,1.88
2023-03-26T16:20:54.707Z,2.45
2023-03-26T16:23:30.132Z,5.75
2023-03-26T16:26:05.314Z,4.15
2023-03-26T16:28:32.365Z,7.77
2023-03-26T16:31:23.550Z,4.80
2023-03-26T16:34:09.028Z,2.30
2023-03-26T16:36:44.194Z,11.93
2023-03-26T16:39:40.220Z,0.65
2023-03-26T16:42:15.645Z,4.77
2023-03-26T16:45:23.590Z,5.43
2023-03-26T16:48:10.086Z,5.30
2023-03-26T16:50:52.745Z,0.60
2023-03-26T16:53:38.436Z,9.88
2023-03-26T16:56:13.831Z,4.23
2023-03-26T16:58:54.938Z,6.50
2023-03-26T17:01:41.413Z,4.00
2023-03-26T17:04:21.499Z,4.50
2023-03-26T17:06:53.232Z,1.58
2023-03-26T17:09:33.865Z,8.80
2023-03-26T17:12:28.416Z,0.68
2023-03-26T17:15:22.925Z,3.42
2023-03-26T17:18:13.696Z,5.38
2023-03-26T17:20:50.271Z,4.35
2023-03-26T17:23:41.235Z,1.70
2023-03-26T17:26:10.785Z,1.20
2023-03-26T17:29:07.844Z,0.73
2023-03-26T17:31:45.197Z,1.17
2023-03-26T17:34:33.226Z,0.85
2023-03-26T17:37:03.124Z,5.77
2023-03-26T17:39:38.999Z,1.02
2023-03-26T17:42:13.243Z,1.40
2023-03-26T17:44:48.766Z,3.63
2023-03-26T17:47:39.443Z,1.15
2023-03-26T17:50:24.106Z,2.60
2023-03-26T17:53:00.148Z,0.22
2023-03-26T17:55:31.001Z,1.00
2023-03-26T17:58:03.510Z,3.22
2023-03-26T18:00:40.464Z,2.45
2023-03-26T18:03:18.393Z,4.00
2023-03-26T18:05:46.885Z,3.03
2023-03-26T18:08:28.587Z,4.03
2023-03-26T18:11:28.013Z,0.47
2023-03-26T18:14:09.322Z,1.10
2023-03-26T18:16:42.683Z,1.03
2023-03-26T18:19:18.739Z,3.05
2023-03-26T18:21:57.360Z,3.88
2023-03-26T18:24:36.481Z,2.03
2023-03-26T18:27:06.669Z,2.95
2023-03-26T18:29:37.445Z,2.00
2023-03-26T18:32:22.083Z,1.55
2023-03-26T18:34:54.235Z,3.40
2023-03-26T18:37:27.784Z,6.47
2023-03-26T18:40:18.904Z,7.75
2023-03-26T18:42:56.024Z,3.73
2023-03-26T18:45:28.849Z,7.53
2023-03-26T18:48:01.427Z,5.00
2023-03-26T18:50:36.617Z,0.73
2023-03-26T18:53:06.200Z,1.95
2023-03-26T18:55:39.077Z,3.47
2023-03-26T18:58:25.200Z,1.42
2023-03-26T19:00:55.027Z,6.03
2023-03-26T19:03:24.365Z,6.18
2023-03-26T19:05:56.350Z,5.57
2023-03-26T19:08:24.513Z,7.00
2023-03-26T19:10:52.733Z,7.93
2023-03-26T19:13:23.172Z,5.22
2023-03-26T19:15:51.950Z,1.92
2023-03-26T19:18:28.193Z,4.50
2023-03-26T19:20:59.535Z,5.47
2023-03-26T19:23:32.209Z,3.90
2023-03-26T19:26:01.700Z,4.30
2023-03-26T19:28:32.754Z,2.38
2023-03-26T19:31:12.225Z,6.68
2023-03-26T19:33:44.069Z,4.00
2023-03-26T19:36:13.655Z,1.20
2023-03-26T19:38:52.771Z,0.52
2023-03-26T19:41:22.988Z,7.90
2023-03-26T19:43:59.368Z,2.30
2023-03-26T19:46:27.206Z,12.47
2023-03-26T19:48:55.880Z,9.32
2023-03-26T19:51:30.854Z,2.13
2023-03-26T19:54:03.499Z,4.22
2023-03-26T19:56:30.313Z,1.02
2023-03-26T19:58:57.352Z,1.33
2023-03-26T20:01:27.141Z,1.67
2023-03-26T20:04:00.598Z,2.83
2023-03-26T20:09:16.232Z,8.38
2023-03-26T20:11:42.606Z,1.90
2023-03-26T20:14:14.853Z,5.72
2023-03-26T20:16:43.863Z,3.38
2023-03-26T20:19:11.488Z,1.98
2023-03-26T20:21:41.161Z,0.88
2023-03-26T20:24:12.975Z,1.93
2023-03-26T20:26:39.407Z,5.05
2023-03-26T20:29:06.158Z,7.32
2023-03-26T20:31:32.641Z,2.95
2023-03-26T20:33:59.338Z,6.32
2023-03-26T20:36:33.802Z,2.63
2023-03-26T20:39:05.769Z,3.20
2023-03-26T20:41:33.562Z,4.97
2023-03-26T20:44:00.405Z,5.15
2023-03-26T20:46:30.808Z,2.45
2023-03-26T20:48:58.908Z,3.17
2023-03-26T20:51:28.177Z,11.50
2023-03-26T20:53:55.226Z,3.40
2023-03-26T20:56:21.789Z,9.05
2023-03-26T20:59:09.802Z,3.30
2023-03-26T21:01:38.081Z,2.30
2023-03-26T21:04:05.358Z,4.55
2023-03-26T21:06:31.951Z,8.65
2023-03-26T21:08:58.620Z,5.15
2023-03-26T21:11:53.650Z,7.10
2023-03-26T21:14:27.663Z,2.07
2023-03-26T21:16:54.466Z,2.53
2023-03-26T21:19:21.147Z,13.20
2023-03-26T21:22:01.044Z,12.70
2023-03-26T21:24:35.086Z,5.00
2023-03-26T21:27:22.843Z,0.83
2023-03-26T21:29:49.437Z,4.72
2023-03-26T21:32:16.106Z,5.47
2023-03-26T21:34:55.588Z,1.35
2023-03-26T21:37:25.041Z,6.82
2023-03-26T21:39:51.592Z,4.67
2023-03-26T21:42:18.468Z,1.85
2023-03-26T21:44:45.120Z,4.03
2023-03-26T21:47:11.839Z,5.13
2023-03-26T21:49:38.493Z,6.85
2023-03-26T21:52:05.174Z,2.57
2023-03-26T21:54:32.521Z,3.03
2023-03-26T21:57:11.414Z,2.50
2023-03-26T21:59:53.648Z,5.18
2023-03-26T22:02:26.122Z,5.20
2023-03-26T22:05:01.040Z,8.80
2023-03-26T22:07:35.640Z,1.38
2023-03-26T22:10:02.046Z,10.75
2023-03-26T22:12:28.527Z,2.90
2023-03-26T22:14:54.937Z,4.25
2023-03-26T22:17:22.768Z,3.10
2023-03-26T22:19:49.154Z,3.60
2023-03-26T22:22:15.553Z,13.02
2023-03-26T22:24:42.256Z,4.55
2023-03-26T22:27:08.702Z,4.70
2023-03-26T22:29:35.173Z,12.23
2023-03-26T22:32:03.548Z,5.90
2023-03-26T22:34:30.583Z,4.22
2023-03-26T22:36:57.232Z,5.95
2023-03-26T22:39:23.620Z,3.47
2023-03-26T22:41:50.003Z,5.17
2023-03-26T22:44:20.157Z,3.42
2023-03-26T22:46:49.272Z,11.70
2023-03-26T22:49:16.266Z,5.65
2023-03-26T22:51:42.621Z,6.70
2023-03-26T22:54:09.477Z,4.60
2023-03-26T22:56:36.932Z,6.05
2023-03-26T22:59:03.720Z,3.20
2023-03-26T23:01:30.544Z,4.43
2023-03-26T23:03:57.829Z,3.58
2023-03-26T23:06:25.039Z,3.03
2023-03-26T23:08:51.536Z,2.20
2023-03-26T23:11:20.271Z,3.17
2023-03-26T23:13:47.305Z,7.60
2023-03-26T23:16:14.954Z,2.53
2023-03-26T23:18:41.509Z,1.73
2023-03-26T23:21:20.839Z,5.18
2023-03-26T23:23:49.271Z,7.30
2023-03-26T23:26:16.193Z,4.70
2023-03-26T23:28:43.223Z,3.22
2023-03-26T23:31:12.014Z,1.93
2023-03-26T23:33:46.457Z,8.50
2023-03-26T23:36:17.782Z,2.38
2023-03-26T23:38:48.825Z,5.47
2023-03-26T23:41:17.532Z,6.85
2023-03-26T23:43:54.482Z,3.57
2023-03-26T23:46:30.886Z,1.58
2023-03-26T23:48:59.856Z,4.22
2023-03-26T23:51:26.508Z,3.40
2023-03-26T23:53:53.430Z,7.30
2023-03-26T23:56:20.073Z,0.77
2023-03-26T23:58:46.526Z,3.80
